createdAt,value
2022-10-13T00:00:18.019Z,96.70
2022-10-13T00:00:41.094Z,99.05
2022-10-13T00:01:15.493Z,96.88
2022-10-13T00:01:37.321Z,96.03
2022-10-13T00:01:59.169Z,89.77
2022-10-13T00:02:21.198Z,86.18
2022-10-13T00:02:43.132Z,90.32
2022-10-13T00:03:04.836Z,92.80
2022-10-13T00:03:26.617Z,96.65
2022-10-13T00:03:48.533Z,96.70
2022-10-13T00:04:10.400Z,100.53
2022-10-13T00:04:32.488Z,98.50
2022-10-13T00:04:54.248Z,99.30
2022-10-13T00:05:16.972Z,100.47
2022-10-13T00:05:47.115Z,95.15
2022-10-13T00:06:11.132Z,96.43
2022-10-13T00:06:32.972Z,98.35
2022-10-13T00:06:54.685Z,100.38
2022-10-13T00:07:16.432Z,102.95
2022-10-13T00:07:38.248Z,97.32
2022-10-13T00:08:00.992Z,99.93
2022-10-13T00:08:22.851Z,106.35
2022-10-13T00:08:45.542Z,100.07
2022-10-13T00:09:07.603Z,98.95
2022-10-13T00:09:29.561Z,98.80
2022-10-13T00:09:51.670Z,94.95
2022-10-13T00:10:13.415Z,90.45
2022-10-13T00:10:41.172Z,100.43
2022-10-13T00:11:13.569Z,102.68
2022-10-13T00:11:35.295Z,93.43
2022-10-13T00:11:58.457Z,91.90
2022-10-13T00:12:20.551Z,88.70
2022-10-13T00:12:42.554Z,99.63
2022-10-13T00:13:05.680Z,104.68
2022-10-13T00:13:28.031Z,101.35
2022-10-13T00:13:50.731Z,97.90
2022-10-13T00:14:12.839Z,100.68
2022-10-13T00:14:34.626Z,101.45
2022-10-13T00:14:58.080Z,93.53
2022-10-13T00:15:20.491Z,97.78
2022-10-13T00:15:45.254Z,102.18
2022-10-13T00:16:08.274Z,97.03
2022-10-13T00:16:31.617Z,95.38
2022-10-13T00:16:53.462Z,97.07
2022-10-13T00:17:15.246Z,98.78
2022-10-13T00:17:37.126Z,98.85
2022-10-13T00:17:58.960Z,95.93
2022-10-13T00:18:20.685Z,96.35
2022-10-13T00:18:42.843Z,99.65
2022-10-13T00:19:04.564Z,98.80
2022-10-13T00:19:26.335Z,96.20
2022-10-13T00:19:49.648Z,102.93
2022-10-13T00:20:11.917Z,106.65
2022-10-13T00:20:34.711Z,98.47
2022-10-13T00:20:56.792Z,103.15
2022-10-13T00:21:22.707Z,101.83
2022-10-13T00:21:44.397Z,92.13
2022-10-13T00:22:06.224Z,92.93
2022-10-13T00:22:28.121Z,87.15
2022-10-13T00:22:49.826Z,88.68
2022-10-13T00:23:14.433Z,91.15
2022-10-13T00:23:36.744Z,94.38
2022-10-13T00:23:58.697Z,96.17
2022-10-13T00:24:37.241Z,89.80
2022-10-13T00:25:33.503Z,83.10
2022-10-13T00:25:57.618Z,94.35
2022-10-13T00:26:21.402Z,92.22
2022-10-13T00:26:43.178Z,88.68
2022-10-13T00:27:05.060Z,91.05
2022-10-13T00:27:26.741Z,91.00
2022-10-13T00:27:48.445Z,89.57
2022-10-13T00:28:11.429Z,90.43
2022-10-13T00:28:33.523Z,88.03
2022-10-13T00:28:56.410Z,90.78
2022-10-13T00:29:18.357Z,90.07
2022-10-13T00:29:40.047Z,92.10
2022-10-13T00:30:01.788Z,87.97
2022-10-13T00:30:24.857Z,93.75
2022-10-13T00:30:47.259Z,93.68
2022-10-13T00:31:15.793Z,93.60
2022-10-13T00:31:37.566Z,83.72
2022-10-13T00:31:59.298Z,88.30
2022-10-13T00:32:21.538Z,86.15
2022-10-13T00:32:43.410Z,84.15
2022-10-13T00:33:05.873Z,95.53
2022-10-13T00:33:27.776Z,91.65
2022-10-13T00:33:49.722Z,95.20
2022-10-13T00:34:11.435Z,83.60
2022-10-13T00:34:33.361Z,90.15
2022-10-13T00:34:55.083Z,91.28
2022-10-13T00:35:16.979Z,92.13
2022-10-13T00:35:46.546Z,91.75
2022-10-13T00:36:08.710Z,95.65
2022-10-13T00:36:30.572Z,96.47
2022-10-13T00:36:52.385Z,99.72
2022-10-13T00:37:14.203Z,103.40
2022-10-13T00:37:36.070Z,95.50
2022-10-13T00:37:58.295Z,108.35
2022-10-13T00:38:21.810Z,106.18
2022-10-13T00:38:44.039Z,98.10
2022-10-13T00:39:05.895Z,103.05
2022-10-13T00:39:27.626Z,102.75
2022-10-13T00:39:49.331Z,102.43
2022-10-13T00:40:11.899Z,93.63
2022-10-13T00:40:33.866Z,92.90
2022-10-13T00:40:56.535Z,96.70
2022-10-13T00:41:18.287Z,91.10
2022-10-13T00:41:40.001Z,88.82
2022-10-13T00:42:01.995Z,93.97
2022-10-13T00:42:26.421Z,87.47
2022-10-13T00:42:48.245Z,94.65
2022-10-13T00:43:27.757Z,95.03
2022-10-13T00:43:55.468Z,88.63
2022-10-13T00:45:07.150Z,93.93
2022-10-13T00:45:30.411Z,86.90
2022-10-13T00:45:53.185Z,92.25
2022-10-13T00:46:16.040Z,91.10
2022-10-13T00:46:38.167Z,91.80
2022-10-13T00:46:59.993Z,91.60
2022-10-13T00:47:22.246Z,87.32
2022-10-13T00:47:48.385Z,94.60
2022-10-13T00:48:10.181Z,95.45
2022-10-13T00:48:32.077Z,90.95
2022-10-13T00:48:55.431Z,83.15
2022-10-13T00:49:17.254Z,83.22
2022-10-13T00:49:39.244Z,87.25
2022-10-13T00:50:01.713Z,89.68
2022-10-13T00:50:31.905Z,93.47
2022-10-13T00:50:55.665Z,94.97
2022-10-13T00:51:22.508Z,95.50
2022-10-13T00:51:48.917Z,93.95
2022-10-13T00:52:11.256Z,94.07
2022-10-13T00:52:34.697Z,88.65
2022-10-13T00:52:58.792Z,93.95
2022-10-13T00:53:24.416Z,91.38
2022-10-13T00:53:48.053Z,94.10
2022-10-13T00:54:14.018Z,93.55
2022-10-13T00:54:36.090Z,95.63
2022-10-13T00:54:58.429Z,92.53
2022-10-13T00:55:24.821Z,90.90
2022-10-13T00:55:48.139Z,86.95
2022-10-13T00:56:14.017Z,87.78
2022-10-13T00:56:38.841Z,90.97
2022-10-13T00:57:02.867Z,88.43
2022-10-13T00:57:24.655Z,90.90
2022-10-13T00:57:54.857Z,94.25
2022-10-13T00:58:19.649Z,96.32
2022-10-13T00:58:42.223Z,99.00
2022-10-13T00:59:09.220Z,95.30
2022-10-13T00:59:31.236Z,94.35
2022-10-13T00:59:53.055Z,88.32
2022-10-13T01:00:15.236Z,94.18
2022-10-13T01:00:37.113Z,91.47
2022-10-13T01:01:00.307Z,95.45
2022-10-13T01:01:22.709Z,100.50
2022-10-13T01:01:44.433Z,95.72
2022-10-13T01:02:06.990Z,88.97
2022-10-13T01:02:34.746Z,91.82
2022-10-13T01:02:56.842Z,94.10
2022-10-13T01:03:20.591Z,98.97
2022-10-13T01:03:42.332Z,99.03
2022-10-13T01:04:04.392Z,97.22
2022-10-13T01:04:29.195Z,94.78
2022-10-13T01:04:52.226Z,95.35
2022-10-13T01:05:14.236Z,96.57
2022-10-13T01:05:36.603Z,99.22
2022-10-13T01:06:01.316Z,102.32
2022-10-13T01:06:24.023Z,96.43
2022-10-13T01:06:46.434Z,103.95
2022-10-13T01:07:08.637Z,104.07
2022-10-13T01:07:30.894Z,105.25
2022-10-13T01:07:54.426Z,101.45
2022-10-13T01:08:17.934Z,104.72
2022-10-13T01:08:39.709Z,98.90
2022-10-13T01:09:01.428Z,97.72
2022-10-13T01:09:23.229Z,92.85
2022-10-13T01:09:45.264Z,90.88
2022-10-13T01:10:07.879Z,100.43
2022-10-13T01:10:55.603Z,98.75
2022-10-13T01:11:36.329Z,100.18
2022-10-13T01:12:11.639Z,89.95
2022-10-13T01:12:52.575Z,93.25
2022-10-13T01:13:38.732Z,94.85
2022-10-13T01:14:07.443Z,90.80
2022-10-13T01:14:44.719Z,92.25
2022-10-13T01:15:24.329Z,98.35
2022-10-13T01:15:57.298Z,90.28
2022-10-13T01:16:21.520Z,87.40
2022-10-13T01:16:55.994Z,85.85
2022-10-13T01:17:39.114Z,91.97
2022-10-13T01:18:28.523Z,83.18
2022-10-13T01:19:35.216Z,84.47
2022-10-13T01:20:24.729Z,87.40
2022-10-13T01:21:05.370Z,85.57
2022-10-13T01:22:21.392Z,86.07
2022-10-13T01:23:09.214Z,79.72
2022-10-13T01:23:54.570Z,86.68
2022-10-13T01:24:42.822Z,83.13
2022-10-13T01:25:16.503Z,88.43
2022-10-13T01:25:56.460Z,86.97
2022-10-13T01:26:49.820Z,81.70
2022-10-13T01:27:29.963Z,82.60
2022-10-13T01:28:20.949Z,82.00
2022-10-13T01:29:16.317Z,87.30
2022-10-13T01:30:06.153Z,84.50
2022-10-13T01:30:30.721Z,85.03
2022-10-13T01:31:00.542Z,94.00
2022-10-13T01:32:00.405Z,90.05
2022-10-13T01:32:45.087Z,86.03
2022-10-13T01:33:45.578Z,75.32
2022-10-13T01:34:42.112Z,88.07
2022-10-13T01:35:29.336Z,86.72
2022-10-13T01:36:26.587Z,78.78
2022-10-13T01:37:10.023Z,85.43
2022-10-13T01:37:34.878Z,86.72
2022-10-13T01:38:15.035Z,80.40
2022-10-13T01:39:03.088Z,87.85
2022-10-13T01:39:37.723Z,82.10
2022-10-13T01:40:30.223Z,82.63
2022-10-13T01:41:05.225Z,81.55
2022-10-13T01:41:39.323Z,90.20
2022-10-13T01:42:18.042Z,88.05
2022-10-13T01:42:45.788Z,84.32
2022-10-13T01:43:18.702Z,80.90
2022-10-13T01:44:06.367Z,87.00
2022-10-13T01:44:35.335Z,90.82
2022-10-13T01:45:01.871Z,85.00
2022-10-13T01:45:29.123Z,84.78
2022-10-13T01:46:15.136Z,79.25
2022-10-13T01:46:38.630Z,81.10
2022-10-13T01:47:01.859Z,81.22
2022-10-13T01:47:26.294Z,74.90
2022-10-13T01:47:49.449Z,80.70
2022-10-13T01:48:11.673Z,84.22
2022-10-13T01:48:36.123Z,85.55
2022-10-13T01:49:02.527Z,84.38
2022-10-13T01:49:32.309Z,81.03
2022-10-13T01:49:56.159Z,79.70
2022-10-13T01:50:20.371Z,84.13
2022-10-13T01:50:42.539Z,83.45
2022-10-13T01:51:07.295Z,83.95
2022-10-13T01:51:30.612Z,83.20
2022-10-13T01:51:54.374Z,86.03
2022-10-13T01:52:19.273Z,81.05
2022-10-13T01:52:42.285Z,85.22
2022-10-13T01:53:06.509Z,81.93
2022-10-13T01:53:29.923Z,88.00
2022-10-13T01:53:52.192Z,86.55
2022-10-13T01:54:13.908Z,83.15
2022-10-13T01:54:36.331Z,84.93
2022-10-13T01:54:58.059Z,84.07
2022-10-13T01:55:19.984Z,87.13
2022-10-13T01:55:55.995Z,87.18
2022-10-13T01:56:17.972Z,85.65
2022-10-13T01:56:39.753Z,87.60
2022-10-13T01:57:01.745Z,84.90
2022-10-13T01:57:35.026Z,87.28
2022-10-13T01:57:56.777Z,86.93
2022-10-13T01:58:18.676Z,87.28
2022-10-13T01:58:40.672Z,86.45
2022-10-13T01:59:08.342Z,90.18
2022-10-13T01:59:34.033Z,87.40
2022-10-13T01:59:55.999Z,87.93
2022-10-13T02:00:22.153Z,87.15
2022-10-13T02:00:56.289Z,85.38
2022-10-13T02:01:40.217Z,83.57
2022-10-13T02:02:27.805Z,88.40
2022-10-13T02:03:16.102Z,89.15
2022-10-13T02:03:54.797Z,84.37
2022-10-13T02:04:30.068Z,90.50
2022-10-13T02:05:37.907Z,86.65
2022-10-13T02:06:15.681Z,87.43
2022-10-13T02:08:41.560Z,79.72
2022-10-13T02:09:05.728Z,68.95
2022-10-13T02:09:34.457Z,76.55
2022-10-13T02:09:56.103Z,83.07
2022-10-13T02:10:23.158Z,83.53
2022-10-13T02:10:57.369Z,82.38
2022-10-13T02:11:22.225Z,75.88
2022-10-13T02:11:51.681Z,78.50
2022-10-13T02:12:31.247Z,80.68
2022-10-13T02:13:14.669Z,82.90
2022-10-13T02:13:38.234Z,79.15
2022-10-13T02:14:38.296Z,75.63
2022-10-13T02:15:01.126Z,82.22
2022-10-13T02:15:29.358Z,83.10
2022-10-13T02:15:55.318Z,89.53
2022-10-13T02:16:20.596Z,77.55
2022-10-13T02:16:45.738Z,84.72
2022-10-13T02:17:07.733Z,81.70
2022-10-13T02:17:30.649Z,84.70
2022-10-13T02:17:53.429Z,85.28
2022-10-13T02:18:20.074Z,83.45
2022-10-13T02:18:42.754Z,75.30
2022-10-13T02:19:08.318Z,77.78
2022-10-13T02:19:33.714Z,83.60
2022-10-13T02:19:56.609Z,82.20
2022-10-13T02:20:20.699Z,86.78
2022-10-13T02:20:42.935Z,81.88
2022-10-13T02:21:04.972Z,85.07
2022-10-13T02:21:26.786Z,86.82
2022-10-13T02:21:48.770Z,81.00
2022-10-13T02:22:13.361Z,82.55
2022-10-13T02:22:42.291Z,84.72
2022-10-13T02:23:12.404Z,86.60
2022-10-13T02:23:34.351Z,79.60
2022-10-13T02:23:56.367Z,80.18
2022-10-13T02:24:18.244Z,85.13
2022-10-13T02:24:40.160Z,83.93
2022-10-13T02:25:01.990Z,80.70
2022-10-13T02:25:24.931Z,78.00
2022-10-13T02:25:48.753Z,78.82
2022-10-13T02:26:11.134Z,74.50
2022-10-13T02:26:34.001Z,75.72
2022-10-13T02:26:56.653Z,74.60
2022-10-13T02:27:18.730Z,81.45
2022-10-13T02:27:41.111Z,78.68
2022-10-13T02:28:03.912Z,78.40
2022-10-13T02:28:27.004Z,79.13
2022-10-13T02:28:49.407Z,86.65
2022-10-13T02:29:16.663Z,83.20
2022-10-13T02:29:50.294Z,84.95
2022-10-13T02:30:24.555Z,79.60
2022-10-13T02:30:47.044Z,81.60
2022-10-13T02:31:09.850Z,82.15
2022-10-13T02:31:31.515Z,77.68
2022-10-13T02:31:54.958Z,78.28
2022-10-13T02:32:17.086Z,78.57
2022-10-13T02:32:39.073Z,83.15
2022-10-13T02:33:01.692Z,81.85
2022-10-13T02:33:24.577Z,82.53
2022-10-13T02:33:46.456Z,78.18
2022-10-13T02:34:08.889Z,75.45
2022-10-13T02:34:30.901Z,81.00
2022-10-13T02:34:52.879Z,79.72
2022-10-13T02:35:14.589Z,81.28
2022-10-13T02:35:37.920Z,78.43
2022-10-13T02:35:59.872Z,81.93
2022-10-13T02:36:21.980Z,83.25
2022-10-13T02:36:43.729Z,81.15
2022-10-13T02:37:05.965Z,81.20
2022-10-13T02:37:27.989Z,81.65
2022-10-13T02:37:49.940Z,80.10
2022-10-13T02:38:12.057Z,76.78
2022-10-13T02:40:15.259Z,78.38
2022-10-13T02:40:51.245Z,76.38
2022-10-13T02:41:12.988Z,77.10
2022-10-13T02:41:35.320Z,76.30
2022-10-13T02:41:57.272Z,82.05
2022-10-13T02:42:19.366Z,82.15
2022-10-13T02:42:41.405Z,77.85
2022-10-13T02:43:03.817Z,75.68
2022-10-13T02:43:25.520Z,79.78
2022-10-13T02:43:47.249Z,82.78
2022-10-13T02:44:09.223Z,76.90
2022-10-13T02:44:30.957Z,85.30
2022-10-13T02:44:52.979Z,82.72
2022-10-13T02:45:15.022Z,81.53
2022-10-13T02:45:36.839Z,81.53
2022-10-13T02:45:58.857Z,73.68
2022-10-13T02:46:21.266Z,75.00
2022-10-13T02:46:42.999Z,81.13
2022-10-13T02:47:06.005Z,75.93
2022-10-13T02:47:27.831Z,78.40
2022-10-13T02:47:49.992Z,82.78
2022-10-13T02:48:11.914Z,83.18
2022-10-13T02:48:33.689Z,76.85
2022-10-13T02:48:55.818Z,73.22
2022-10-13T02:49:17.586Z,77.45
2022-10-13T02:49:39.771Z,77.07
2022-10-13T02:50:02.883Z,81.85
2022-10-13T02:50:24.717Z,75.35
2022-10-13T02:50:47.760Z,78.65
2022-10-13T02:51:11.187Z,76.18
2022-10-13T02:51:37.522Z,73.78
2022-10-13T02:52:01.652Z,78.75
2022-10-13T02:52:23.730Z,79.53
2022-10-13T02:52:45.426Z,77.82
2022-10-13T02:53:07.248Z,77.90
2022-10-13T02:53:29.191Z,78.47
2022-10-13T02:53:51.120Z,77.25
2022-10-13T02:54:12.985Z,83.05
2022-10-13T02:54:34.703Z,77.78
2022-10-13T02:54:56.415Z,75.95
2022-10-13T02:55:18.350Z,76.50
2022-10-13T02:55:40.120Z,78.80
2022-10-13T02:56:02.701Z,76.68
2022-10-13T02:56:24.631Z,82.03
2022-10-13T02:56:46.440Z,82.38
2022-10-13T02:57:08.148Z,81.15
2022-10-13T02:57:29.865Z,78.10
2022-10-13T02:57:51.741Z,79.07
2022-10-13T02:58:13.422Z,72.00
2022-10-13T02:58:35.729Z,75.18
2022-10-13T02:58:57.515Z,79.35
2022-10-13T02:59:19.437Z,76.43
2022-10-13T02:59:41.109Z,78.03
2022-10-13T03:00:05.734Z,77.13
2022-10-13T03:00:27.568Z,80.18
2022-10-13T03:00:49.480Z,82.78
2022-10-13T03:01:14.449Z,73.65
2022-10-13T03:01:41.173Z,72.57
2022-10-13T03:02:10.341Z,78.10
2022-10-13T03:02:32.066Z,74.63
2022-10-13T03:02:54.184Z,75.70
2022-10-13T03:03:16.033Z,77.18
2022-10-13T03:03:37.809Z,72.97
2022-10-13T03:03:59.654Z,79.10
2022-10-13T03:04:22.034Z,78.07
2022-10-13T03:04:44.091Z,77.47
2022-10-13T03:05:06.158Z,73.22
2022-10-13T03:05:27.853Z,77.65
2022-10-13T03:05:49.563Z,80.28
2022-10-13T03:06:11.356Z,76.32
2022-10-13T03:06:33.151Z,77.70
2022-10-13T03:06:54.878Z,76.78
2022-10-13T03:07:18.929Z,78.13
2022-10-13T03:07:40.678Z,76.22
2022-10-13T03:08:02.776Z,71.88
2022-10-13T03:08:25.091Z,75.25
2022-10-13T03:08:46.907Z,74.53
2022-10-13T03:09:08.689Z,76.72
2022-10-13T03:09:51.736Z,74.57
2022-10-13T03:10:13.774Z,74.65
2022-10-13T03:10:35.511Z,70.97
2022-10-13T03:10:57.893Z,73.25
2022-10-13T03:11:19.824Z,69.13
2022-10-13T03:11:41.578Z,71.68
2022-10-13T03:12:03.425Z,72.20
2022-10-13T03:12:25.184Z,77.72
2022-10-13T03:12:47.099Z,74.05
2022-10-13T03:13:08.785Z,74.40
2022-10-13T03:13:30.811Z,75.30
2022-10-13T03:13:52.507Z,68.13
2022-10-13T03:14:14.309Z,66.38
2022-10-13T03:14:36.356Z,68.38
2022-10-13T03:14:58.372Z,70.65
2022-10-13T03:15:20.160Z,70.22
2022-10-13T03:15:41.941Z,73.63
2022-10-13T03:16:03.914Z,70.05
2022-10-13T03:16:25.663Z,69.20
2022-10-13T03:16:47.413Z,67.18
2022-10-13T03:17:13.301Z,69.88
2022-10-13T03:17:35.345Z,71.53
2022-10-13T03:17:57.093Z,73.25
2022-10-13T03:18:18.992Z,74.38
2022-10-13T03:18:40.729Z,70.03
2022-10-13T03:19:02.454Z,69.75
2022-10-13T03:19:24.627Z,71.63
2022-10-13T03:19:46.459Z,72.38
2022-10-13T03:20:09.332Z,73.28
2022-10-13T03:20:31.018Z,73.22
2022-10-13T03:21:01.135Z,75.45
2022-10-13T03:21:22.875Z,70.22
2022-10-13T03:21:44.782Z,73.43
2022-10-13T03:22:06.471Z,71.25
2022-10-13T03:22:28.552Z,69.68
2022-10-13T03:22:50.320Z,67.13
2022-10-13T03:23:12.229Z,65.57
2022-10-13T03:23:34.317Z,69.20
2022-10-13T03:23:56.606Z,68.03
2022-10-13T03:24:18.423Z,64.38
2022-10-13T03:24:40.230Z,65.72
2022-10-13T03:25:01.924Z,73.47
2022-10-13T03:25:23.653Z,68.22
2022-10-13T03:25:45.557Z,66.32
2022-10-13T03:26:07.289Z,64.82
2022-10-13T03:26:29.014Z,66.63
2022-10-13T03:26:50.771Z,67.60
2022-10-13T03:27:12.900Z,70.60
2022-10-13T03:27:34.957Z,71.00
2022-10-13T03:27:56.768Z,72.18
2022-10-13T03:28:19.385Z,72.32
2022-10-13T03:28:42.036Z,68.93
2022-10-13T03:29:04.838Z,65.13
2022-10-13T03:29:26.686Z,64.65
2022-10-13T03:29:48.551Z,71.07
2022-10-13T03:30:11.539Z,66.63
2022-10-13T03:30:34.656Z,65.68
2022-10-13T03:31:07.882Z,63.28
2022-10-13T03:31:29.992Z,69.05
2022-10-13T03:31:51.698Z,67.55
2022-10-13T03:32:14.375Z,65.55
2022-10-13T03:32:36.346Z,60.58
2022-10-13T03:32:58.082Z,65.65
2022-10-13T03:33:19.821Z,65.70
2022-10-13T03:33:41.615Z,66.80
2022-10-13T03:34:03.375Z,70.43
2022-10-13T03:34:25.435Z,68.65
2022-10-13T03:34:47.448Z,68.70
2022-10-13T03:35:09.414Z,65.82
2022-10-13T03:35:31.124Z,66.35
2022-10-13T03:35:52.822Z,66.47
2022-10-13T03:36:14.695Z,64.57
2022-10-13T03:36:36.463Z,66.60
2022-10-13T03:36:58.163Z,62.67
2022-10-13T03:37:19.907Z,61.83
2022-10-13T03:37:41.640Z,61.08
2022-10-13T03:38:03.785Z,59.60
2022-10-13T03:38:25.450Z,64.32
2022-10-13T03:38:47.266Z,63.35
2022-10-13T03:39:09.146Z,64.97
2022-10-13T03:39:30.850Z,67.97
2022-10-13T03:39:54.134Z,67.15
2022-10-13T03:40:15.977Z,61.42
2022-10-13T03:40:37.709Z,63.38
2022-10-13T03:41:06.039Z,66.03
2022-10-13T03:41:28.061Z,66.60
2022-10-13T03:41:51.132Z,68.90
2022-10-13T03:42:12.868Z,69.05
2022-10-13T03:42:38.240Z,69.78
2022-10-13T03:43:00.158Z,70.75
2022-10-13T03:43:22.216Z,73.70
2022-10-13T03:43:45.101Z,66.30
2022-10-13T03:44:07.617Z,64.72
2022-10-13T03:44:29.470Z,61.85
2022-10-13T03:44:55.917Z,62.17
2022-10-13T03:45:18.136Z,62.78
2022-10-13T03:45:39.870Z,64.53
2022-10-13T03:46:03.856Z,72.45
2022-10-13T03:46:28.898Z,68.32
2022-10-13T03:46:50.609Z,63.28
2022-10-13T03:47:12.292Z,65.50
2022-10-13T03:47:35.992Z,64.07
2022-10-13T03:47:58.256Z,63.63
2022-10-13T03:48:19.959Z,66.20
2022-10-13T03:48:42.339Z,62.55
2022-10-13T03:49:04.150Z,63.13
2022-10-13T03:49:26.176Z,65.07
2022-10-13T03:49:47.911Z,63.75
2022-10-13T03:50:10.780Z,64.53
2022-10-13T03:50:32.529Z,71.18
2022-10-13T03:50:54.464Z,69.45
2022-10-13T03:51:19.772Z,61.95
2022-10-13T03:51:41.488Z,63.13
2022-10-13T03:52:03.248Z,63.35
2022-10-13T03:52:24.988Z,66.72
2022-10-13T03:52:46.860Z,61.13
2022-10-13T03:53:10.096Z,64.65
2022-10-13T03:53:32.322Z,63.50
2022-10-13T03:53:54.520Z,62.17
2022-10-13T03:54:16.470Z,61.70
2022-10-13T03:54:38.310Z,61.80
2022-10-13T03:55:00.091Z,63.25
2022-10-13T03:55:21.835Z,61.22
2022-10-13T03:55:51.920Z,61.70
2022-10-13T03:56:19.216Z,60.78
2022-10-13T03:56:41.183Z,60.63
2022-10-13T03:57:03.337Z,62.00
2022-10-13T03:57:25.053Z,64.35
2022-10-13T03:57:47.247Z,64.53
2022-10-13T03:58:09.229Z,61.22
2022-10-13T03:58:31.283Z,62.33
2022-10-13T03:59:00.987Z,60.65
2022-10-13T03:59:22.767Z,63.28
2022-10-13T03:59:44.781Z,63.63
2022-10-13T04:00:10.704Z,60.28
2022-10-13T04:00:32.395Z,62.92
2022-10-13T04:00:54.697Z,62.10
2022-10-13T04:01:17.160Z,62.97
2022-10-13T04:01:39.648Z,63.67
2022-10-13T04:02:01.673Z,61.33
2022-10-13T04:02:24.416Z,64.00
2022-10-13T04:02:49.205Z,59.30
2022-10-13T04:03:12.500Z,57.60
2022-10-13T04:03:34.633Z,59.55
2022-10-13T04:03:57.390Z,58.95
2022-10-13T04:04:19.100Z,61.72
2022-10-13T04:04:40.928Z,62.67
2022-10-13T04:05:02.655Z,61.42
2022-10-13T04:05:26.292Z,60.47
2022-10-13T04:05:48.520Z,61.17
2022-10-13T04:06:10.428Z,61.38
2022-10-13T04:06:32.445Z,61.33
2022-10-13T04:06:54.407Z,60.80
2022-10-13T04:07:16.651Z,60.03
2022-10-13T04:07:38.481Z,59.42
2022-10-13T04:08:00.174Z,60.28
2022-10-13T04:08:21.882Z,64.45
2022-10-13T04:08:43.914Z,61.67
2022-10-13T04:09:05.927Z,60.95
2022-10-13T04:09:27.749Z,59.28
2022-10-13T04:09:50.020Z,60.17
2022-10-13T04:10:11.820Z,62.33
2022-10-13T04:10:33.708Z,63.83
2022-10-13T04:11:02.778Z,58.42
2022-10-13T04:11:26.321Z,59.70
2022-10-13T04:11:53.681Z,61.00
2022-10-13T04:12:19.855Z,62.28
2022-10-13T04:12:42.715Z,57.05
2022-10-13T04:13:04.491Z,57.10
2022-10-13T04:13:26.427Z,59.58
2022-10-13T04:13:48.250Z,62.53
2022-10-13T04:14:10.061Z,63.25
2022-10-13T04:14:31.844Z,62.65
2022-10-13T04:14:53.578Z,61.78
2022-10-13T04:15:15.550Z,60.35
2022-10-13T04:15:38.943Z,64.50
2022-10-13T04:16:13.034Z,62.47
2022-10-13T04:16:35.052Z,64.50
2022-10-13T04:16:56.939Z,63.42
2022-10-13T04:17:18.667Z,66.57
2022-10-13T04:17:40.395Z,65.22
2022-10-13T04:18:02.255Z,62.28
2022-10-13T04:18:24.414Z,62.08
2022-10-13T04:18:50.692Z,62.10
2022-10-13T04:19:14.289Z,57.47
2022-10-13T04:19:37.252Z,59.20
2022-10-13T04:19:58.931Z,62.38
2022-10-13T04:20:20.736Z,60.63
2022-10-13T04:20:42.779Z,57.67
2022-10-13T04:21:10.160Z,60.30
2022-10-13T04:21:33.796Z,58.10
2022-10-13T04:21:55.481Z,58.67
2022-10-13T04:22:17.441Z,61.40
2022-10-13T04:22:39.533Z,58.38
2022-10-13T04:23:01.320Z,57.90
2022-10-13T04:23:23.437Z,59.95
2022-10-13T04:23:45.267Z,59.75
2022-10-13T04:24:07.339Z,56.78
2022-10-13T04:24:29.134Z,59.70
2022-10-13T04:24:51.190Z,60.70
2022-10-13T04:25:12.892Z,61.05
2022-10-13T04:25:38.813Z,60.63
2022-10-13T04:26:00.541Z,57.95
2022-10-13T04:26:23.292Z,58.03
2022-10-13T04:26:46.295Z,61.55
2022-10-13T04:27:08.017Z,61.85
2022-10-13T04:27:30.914Z,56.63
2022-10-13T04:27:52.665Z,59.00
2022-10-13T04:28:14.462Z,58.10
2022-10-13T04:28:37.316Z,58.80
2022-10-13T04:28:59.880Z,57.75
2022-10-13T04:29:21.588Z,56.55
2022-10-13T04:29:43.329Z,58.70
2022-10-13T04:30:06.881Z,56.50
2022-10-13T04:30:29.253Z,54.42
2022-10-13T04:30:51.000Z,57.58
2022-10-13T04:31:13.015Z,55.35
2022-10-13T04:31:35.230Z,59.00
2022-10-13T04:31:59.574Z,59.63
2022-10-13T04:32:21.531Z,56.45
2022-10-13T04:32:43.560Z,54.22
2022-10-13T04:33:05.682Z,54.65
2022-10-13T04:33:27.365Z,53.00
2022-10-13T04:33:49.939Z,56.90
2022-10-13T04:34:12.652Z,55.13
2022-10-13T04:34:35.566Z,58.60
2022-10-13T04:34:57.245Z,56.08
2022-10-13T04:35:19.115Z,54.38
2022-10-13T04:35:41.958Z,56.78
2022-10-13T04:36:05.501Z,59.17
2022-10-13T04:36:27.837Z,59.80
2022-10-13T04:36:52.645Z,57.30
2022-10-13T04:37:14.424Z,58.27
2022-10-13T04:37:36.311Z,61.42
2022-10-13T04:37:58.057Z,57.53
2022-10-13T04:38:20.027Z,55.50
2022-10-13T04:38:43.077Z,53.50
2022-10-13T04:39:05.450Z,57.53
2022-10-13T04:39:27.351Z,62.27
2022-10-13T04:39:50.452Z,54.90
2022-10-13T04:40:12.399Z,55.22
2022-10-13T04:40:35.196Z,59.88
2022-10-13T04:40:56.882Z,60.47
2022-10-13T04:41:19.483Z,58.20
2022-10-13T04:41:41.184Z,54.53
2022-10-13T04:42:03.242Z,56.17
2022-10-13T04:42:25.245Z,58.40
2022-10-13T04:42:47.214Z,56.42
2022-10-13T04:43:08.936Z,57.20
2022-10-13T04:43:31.470Z,59.30
2022-10-13T04:43:54.166Z,61.20
2022-10-13T04:44:15.954Z,58.83
2022-10-13T04:44:38.004Z,55.42
2022-10-13T04:44:59.895Z,53.80
2022-10-13T04:45:21.681Z,57.83
2022-10-13T04:45:43.420Z,58.42
2022-10-13T04:46:15.021Z,56.55
2022-10-13T04:46:36.818Z,56.25
2022-10-13T04:47:00.526Z,61.85
2022-10-13T04:47:22.345Z,57.95
2022-10-13T04:47:44.114Z,55.45
2022-10-13T04:48:06.029Z,59.30
2022-10-13T04:48:52.205Z,59.22
2022-10-13T04:49:29.480Z,61.45
2022-10-13T04:52:36.838Z,56.75
2022-10-13T04:52:59.572Z,55.33
2022-10-13T04:53:21.315Z,56.55
2022-10-13T04:53:43.307Z,58.60
2022-10-13T04:54:05.627Z,55.00
2022-10-13T04:54:27.430Z,56.78
2022-10-13T04:54:49.102Z,60.05
2022-10-13T04:55:11.164Z,58.88
2022-10-13T04:55:36.528Z,58.08
2022-10-13T04:56:05.123Z,55.85
2022-10-13T04:56:27.750Z,59.42
2022-10-13T04:56:49.564Z,58.95
2022-10-13T04:57:11.310Z,59.25
2022-10-13T04:57:33.430Z,57.40
2022-10-13T04:57:55.488Z,58.03
2022-10-13T04:58:17.208Z,57.60
2022-10-13T04:58:40.382Z,56.30
2022-10-13T04:59:05.235Z,61.35
2022-10-13T04:59:26.986Z,58.50
2022-10-13T04:59:49.990Z,55.33
2022-10-13T05:00:12.425Z,52.47
2022-10-13T05:00:34.199Z,54.17
2022-10-13T05:00:57.282Z,56.00
2022-10-13T05:01:22.423Z,50.90
2022-10-13T05:01:44.577Z,60.47
2022-10-13T05:02:06.506Z,61.83
2022-10-13T05:02:28.279Z,56.33
2022-10-13T05:02:50.019Z,57.17
2022-10-13T05:03:11.797Z,59.33
2022-10-13T05:03:34.464Z,58.53
2022-10-13T05:03:58.875Z,57.95
2022-10-13T05:04:20.553Z,59.22
2022-10-13T05:04:42.300Z,55.83
2022-10-13T05:05:04.779Z,56.58
2022-10-13T05:05:26.496Z,55.60
2022-10-13T05:05:48.236Z,57.90
2022-10-13T05:07:05.406Z,60.03
2022-10-13T05:07:23.493Z,58.67
2022-10-13T05:07:45.420Z,57.30
2022-10-13T05:08:10.218Z,53.20
2022-10-13T05:08:33.883Z,52.53
2022-10-13T05:08:56.050Z,55.45
2022-10-13T05:09:17.807Z,53.97
2022-10-13T05:09:39.706Z,55.42
2022-10-13T05:10:01.759Z,54.42
2022-10-13T05:10:23.480Z,56.05
2022-10-13T05:10:57.510Z,56.65
2022-10-13T05:11:22.530Z,55.85
2022-10-13T05:11:44.382Z,54.05
2022-10-13T05:12:06.400Z,52.72
2022-10-13T05:12:28.725Z,55.58
2022-10-13T05:12:54.001Z,58.17
2022-10-13T05:13:15.701Z,54.25
2022-10-13T05:13:37.559Z,59.08
2022-10-13T05:13:59.916Z,57.17
2022-10-13T05:14:22.507Z,53.78
2022-10-13T05:14:45.441Z,51.83
2022-10-13T05:15:08.057Z,52.72
2022-10-13T05:15:29.805Z,58.25
2022-10-13T05:15:52.015Z,59.25
2022-10-13T05:16:15.912Z,58.42
2022-10-13T05:16:38.156Z,57.58
2022-10-13T05:16:59.924Z,56.38
2022-10-13T05:17:21.685Z,56.15
2022-10-13T05:17:45.974Z,53.45
2022-10-13T05:18:07.675Z,56.15
2022-10-13T05:18:29.546Z,58.15
2022-10-13T05:18:53.189Z,56.72
2022-10-13T05:19:15.085Z,55.53
2022-10-13T05:19:37.177Z,58.10
2022-10-13T05:19:58.913Z,62.58
2022-10-13T05:20:20.680Z,54.72
2022-10-13T05:20:42.811Z,49.33
2022-10-13T05:21:12.794Z,59.53
2022-10-13T05:21:34.908Z,62.08
2022-10-13T05:21:56.664Z,56.38
2022-10-13T05:22:18.834Z,52.22
2022-10-13T05:22:41.093Z,55.08
2022-10-13T05:23:02.800Z,53.40
2022-10-13T05:23:25.599Z,52.55
2022-10-13T05:23:47.672Z,52.33
2022-10-13T05:24:13.841Z,57.35
2022-10-13T05:24:38.957Z,60.00
2022-10-13T05:25:00.668Z,58.55
2022-10-13T05:25:22.639Z,58.65
2022-10-13T05:25:44.737Z,57.72